x

North Hecate Strait (46183) Wave Buoy

3:00pm - Sat 27th May 2017 All times are PDT. -7 hours from GMT.

  • Sig Wave height 2.0ft
  • Peak Period 4s
  • Wind
    13mph, 16mph gusts
  • Sea Temp 50°f
  • Air Temp 51°f
  • Sea Pressure 1021.2mb
  • North Hecate Strait
  • North Hecate Strait

More Historic Weather Station data

Upgrade to MSW Pro to gain access to the past 30 days of data for over 8000 Wavebouys and Weather Stations around the globe.

Join Pro

Comparision Forecast

View Surf forecast
   
Sat 05/27 3:00pm 2ft 4s 13 16 mph 1021.2mb 50f 51f
2:00pm 2.5ft 4s 13 18 mph 1021.5mb 50f 51f
1:00pm 2.5ft 4s 13 18 mph 1021.8mb 49f 50f
12:00pm 2.5ft 4s 16 20 mph 1022mb 49f 50f
11:00am 3ft 4s 16 18 mph 1022mb 49f 50f
10:00am 3.5ft 4s 18 22 mph 1021.9mb 49f 50f
9:00am 3.5ft 5s 16 20 mph 1021.9mb 49f 49f
8:00am 3.5ft 4s 18 20 mph 1021.7mb 49f 49f
7:00am 4ft 5s 20 22 mph 1021.5mb 49f 49f
6:00am 4.5ft 5s 18 20 mph 1021.2mb 49f 49f
5:00am 4.5ft 5s 16 20 mph 1020.8mb 49f 49f
4:00am  -   -  18
mph
- - -
3:00am 4ft 5s 20 22 mph 1020.7mb 50f 48f
2:00am 3.5ft 5s 20 25 mph 1020.6mb 49f 48f
1:00am 4ft 6s 20 22 mph 1020.6mb 49f 49f
12:00am 4.5ft 5s 18 22 mph 1020.7mb 49f 49f
Fri 05/26 11:00pm 4.5ft 5s 20 27 mph 1020.7mb 49f 49f
10:00pm 4.5ft 5s 20 25 mph 1020.6mb 49f 49f
9:00pm 4.5ft 5s 22 27 mph 1020.2mb 49f 50f
8:00pm 4.5ft 5s 22 27 mph 1020.1mb 50f 51f
7:00pm 4.5ft 5s 20 25 mph 1020.3mb 50f 51f
6:00pm 4.5ft 5s 22 27 mph 1020.2mb 50f 51f
5:00pm 4ft 5s 20 25 mph 1020.1mb 50f 51f
4:00pm 4ft 5s 18 22 mph 1020mb 50f 51f
3:00pm  -   -  18
mph
- - -
2:00pm 4.5ft 5s 18 22 mph 1019.7mb 50f 50f
1:00pm 4.5ft 6s 18 22 mph 1019.6mb 50f 49f
12:00pm 4.5ft 5s 22 27 mph 1019.4mb 49f 49f
11:00am 5ft 6s 22 27 mph 1019.4mb 49f 49f
10:00am 5ft 5s 22 27 mph 1019.2mb 49f 49f
9:00am  -   -  22
mph
1019.3mb - 48f
8:00am 5ft 5s 22 29 mph 1018.9mb 49f 48f
7:00am  -   -  27
mph
- - -
6:00am 6ft 5s 27 31 mph 1018.2mb 49f 47f
5:00am 6ft 5s 27 31 mph 1018.1mb 49f 47f
4:00am 6ft 6s 27 31 mph 1017.8mb 49f 47f
3:00am 6.5ft 6s 27 34 mph 1017.7mb 49f 47f
2:00am 7ft 6s 27 31 mph 1017.6mb 49f 47f
1:00am 6.5ft 7s 27 31 mph 1017.3mb 50f 48f
12:00am 6ft 6s 27 34 mph 1017.3mb 50f 48f
Thu 05/25 11:00pm 6ft 6s 27 34 mph 1017.7mb 50f 48f
10:00pm 6ft 6s 27 31 mph 1017.8mb 50f 49f
9:00pm 5ft 6s 27 31 mph 1017.9mb 50f 49f
8:00pm  -   -   -  mph 1008mb - -
7:00pm 5.5ft 5s 27 31 mph 1018mb 50f 50f
6:00pm  -   -  27
mph
1018.1mb - 50f
4:00pm 4.5ft 5s 27 31 mph 1018.2mb 49f 50f
3:00pm  -   -  25
mph
- - -
2:00pm 5ft 5s 25 29 mph 1018.7mb 49f 50f
1:00pm 5ft 5s 27 34 mph 1018.7mb 49f 49f
12:00pm 5ft 5s 27
mph
1018.8mb 49f 49f
11:00am 5ft 5s 22 27 mph 1019.1mb 49f 49f
10:00am 5ft 5s 22 27 mph 1019.4mb 49f 49f
8:00am 5ft 5s 27 34 mph 1019.5mb 49f 49f
7:00am  -   -  29
mph
- - 48f
6:00am 6ft 5s 29 36 mph 1019.7mb 49f 48f
5:00am 6ft 5s 29 34 mph 1019.9mb 49f 48f
4:00am  -   -  29
mph
- - -
3:00am 7ft 6s 27 34 mph 1019.6mb 49f 48f
2:00am 7ft 6s 27 36 mph 1019.8mb 49f 48f
1:00am  -   -  29
mph
- - 48f
12:00am 7ft 6s 27 34 mph 1020.1mb 49f 48f
Wed 05/24 11:00pm 6.5ft 6s 27 34 mph 1020.6mb 49f 48f
10:00pm 7ft 6s 27
mph
1021.2mb 49f 48f
9:00pm  -   -  27
mph
- - -
8:00pm 6ft 6s 27 34 mph 1021.8mb 49f 49f
7:00pm 6ft 6s 29 34 mph 1021.9mb 49f 49f
6:00pm 6ft 5s 25
mph
1022.5mb 49f 49f
5:00pm 6ft 6s 27 31 mph 1022.6mb 49f 49f
4:00pm 6ft 5s 25 31 mph 1022.8mb 49f 49f
3:00pm 6ft 6s 29 34 mph 1022.8mb - 49f
2:00pm 6.5ft 6s 27 34 mph 1023.1mb - 49f
1:00pm 6ft 6s 27 34 mph 1023.3mb - 49f
12:00pm  -   -   -  mph 1008mb - -
11:00am 7ft 6s 29 36 mph 1023.3mb - 49f
10:00am 7.5ft 6s 31 38 mph 1023.2mb - 49f
9:00am 8ft 6s 29 38 mph 1023.4mb - 49f
8:00am 8ft 6s 31 38 mph 1023.3mb - 49f
7:00am 8ft 6s 31 40 mph 1022.6mb - 49f
6:00am 9ft 6s 36 40 mph 1022.3mb - 48f
5:00am 10ft 6s 36
mph
1021.7mb - 48f
4:00am 9ft 6s 34 43 mph 1021.2mb - 49f
3:00am  -   -  36
mph
1020.3mb - 49f
12:00am 9ft 7s 34 43 mph 1018.7mb - 49f